createdAt,value
2023-05-09T00:02:30.053Z,24.31
2023-05-09T00:04:58.517Z,24.30
2023-05-09T00:07:27.002Z,24.28
2023-05-09T00:09:55.486Z,24.26
2023-05-09T00:12:24.287Z,24.23
2023-05-09T00:14:54.596Z,24.23
2023-05-09T00:17:24.149Z,24.23
2023-05-09T00:19:53.371Z,24.22
2023-05-09T00:22:21.983Z,24.21
2023-05-09T00:24:50.976Z,24.20
2023-05-09T00:27:19.844Z,24.18
2023-05-09T00:29:48.045Z,24.16
2023-05-09T00:32:16.574Z,24.14
2023-05-09T00:34:45.216Z,24.12
2023-05-09T00:37:13.589Z,24.10
2023-05-09T00:39:41.967Z,24.08
2023-05-09T00:42:10.353Z,24.05
2023-05-09T00:44:38.742Z,24.03
2023-05-09T00:47:07.621Z,24.00
2023-05-09T00:49:35.896Z,23.99
2023-05-09T00:52:05.403Z,23.98
2023-05-09T00:54:33.781Z,23.97
2023-05-09T00:57:02.161Z,23.95
2023-05-09T00:59:30.643Z,23.92
2023-05-09T01:01:59.132Z,23.90
2023-05-09T01:04:28.332Z,23.88
2023-05-09T01:07:19.821Z,23.86
2023-05-09T01:10:03.389Z,23.92
2023-05-09T01:13:00.522Z,23.95
2023-05-09T01:15:37.367Z,24.10
2023-05-09T01:18:31.595Z,24.02
2023-05-09T01:21:09.093Z,23.99
2023-05-09T01:23:56.324Z,23.95
2023-05-09T01:26:42.204Z,23.91
2023-05-09T01:29:20.320Z,23.88
2023-05-09T01:31:49.828Z,23.86
2023-05-09T01:34:18.814Z,23.82
2023-05-09T01:36:48.111Z,23.78
2023-05-09T01:39:18.438Z,23.76
2023-05-09T01:41:46.970Z,23.77
2023-05-09T01:44:16.251Z,23.74
2023-05-09T01:46:45.640Z,23.72
2023-05-09T01:49:14.242Z,23.70
2023-05-09T01:51:43.910Z,23.68
2023-05-09T01:54:13.128Z,23.66
2023-05-09T01:56:42.529Z,23.64
2023-05-09T01:59:16.444Z,23.63
2023-05-09T02:01:46.539Z,23.65
2023-05-09T02:04:16.567Z,23.65
2023-05-09T02:06:45.046Z,23.64
2023-05-09T02:09:13.453Z,23.63
2023-05-09T02:11:42.012Z,23.61
2023-05-09T02:14:10.392Z,23.58
2023-05-09T02:16:39.783Z,23.58
2023-05-09T02:19:08.274Z,23.57
2023-05-09T02:21:37.075Z,23.56
2023-05-09T02:24:06.096Z,23.55
2023-05-09T02:26:35.772Z,23.55
2023-05-09T02:29:06.635Z,23.54
2023-05-09T02:31:35.616Z,23.55
2023-05-09T02:34:05.611Z,23.54
2023-05-09T02:36:34.197Z,23.52
2023-05-09T02:39:02.894Z,23.51
2023-05-09T02:41:31.366Z,23.51
2023-05-09T02:43:59.748Z,23.49
2023-05-09T02:46:28.309Z,23.48
2023-05-09T02:48:57.019Z,23.47
2023-05-09T02:51:25.401Z,23.45
2023-05-09T02:53:53.776Z,23.44
2023-05-09T02:56:22.565Z,23.44
2023-05-09T02:58:51.680Z,23.46
2023-05-09T03:01:20.151Z,23.54
2023-05-09T03:03:48.811Z,23.65
2023-05-09T03:06:17.634Z,23.79
2023-05-09T03:08:46.002Z,23.95
2023-05-09T03:11:14.580Z,24.07
2023-05-09T03:13:42.972Z,24.18
2023-05-09T03:16:14.964Z,24.27
2023-05-09T03:18:43.310Z,24.37
2023-05-09T03:21:11.691Z,24.44
2023-05-09T03:23:40.374Z,24.50
2023-05-09T03:26:08.851Z,24.56
2023-05-09T03:28:38.562Z,24.61
2023-05-09T03:31:07.075Z,24.65
2023-05-09T03:33:35.755Z,24.68
2023-05-09T03:36:05.534Z,24.71
2023-05-09T03:38:34.136Z,24.73
2023-05-09T03:41:02.713Z,24.75
2023-05-09T03:43:30.999Z,24.76
2023-05-09T03:45:59.577Z,24.78
2023-05-09T03:48:28.058Z,24.79
2023-05-09T03:50:56.745Z,24.78
2023-05-09T03:53:25.021Z,24.78
2023-05-09T03:55:53.415Z,24.78
2023-05-09T03:58:21.892Z,24.77
2023-05-09T04:00:50.673Z,24.75
2023-05-09T04:03:18.996Z,24.74
2023-05-09T04:05:47.533Z,24.73
2023-05-09T04:08:16.377Z,24.72
2023-05-09T04:10:45.009Z,24.71
2023-05-09T04:13:13.562Z,24.70
2023-05-09T04:15:42.077Z,24.69
2023-05-09T04:18:10.680Z,24.66
2023-05-09T04:20:39.148Z,24.63
2023-05-09T04:23:07.521Z,24.62
2023-05-09T04:25:37.576Z,24.60
2023-05-09T04:28:06.226Z,24.60
2023-05-09T04:30:34.621Z,24.58
2023-05-09T04:33:03.149Z,24.56
2023-05-09T04:35:31.677Z,24.53
2023-05-09T04:38:00.361Z,24.50
2023-05-09T04:40:28.850Z,24.48
2023-05-09T04:43:00.297Z,24.45
2023-05-09T04:45:28.779Z,24.43
2023-05-09T04:47:57.185Z,24.41
2023-05-09T04:50:25.736Z,24.37
2023-05-09T04:52:54.218Z,24.33
2023-05-09T04:55:23.052Z,24.30
2023-05-09T04:57:51.541Z,24.28
2023-05-09T05:00:20.686Z,24.26
2023-05-09T05:02:49.154Z,24.29
2023-05-09T05:05:17.714Z,24.29
2023-05-09T05:07:46.294Z,24.29
2023-05-09T05:10:14.928Z,24.28
2023-05-09T05:12:43.332Z,24.27
2023-05-09T05:15:12.761Z,24.23
2023-05-09T05:17:41.230Z,24.22
2023-05-09T05:20:10.982Z,24.20
2023-05-09T05:22:39.407Z,24.19
2023-05-09T05:25:08.701Z,24.17
2023-05-09T05:27:37.163Z,24.15
2023-05-09T05:30:06.873Z,24.14
2023-05-09T05:32:35.303Z,24.14
2023-05-09T05:35:05.342Z,24.15
2023-05-09T05:37:33.764Z,24.14
2023-05-09T05:40:02.229Z,24.11
2023-05-09T05:42:31.242Z,24.09
2023-05-09T05:45:04.838Z,24.06
2023-05-09T05:47:37.374Z,24.09
2023-05-09T05:50:08.520Z,24.08
2023-05-09T05:52:37.025Z,24.07
2023-05-09T05:55:06.057Z,24.05
2023-05-09T05:57:35.634Z,24.02
2023-05-09T06:00:07.733Z,23.99
2023-05-09T06:02:36.135Z,23.99
2023-05-09T06:05:07.400Z,23.95
2023-05-09T06:07:38.259Z,23.94
2023-05-09T06:10:08.299Z,23.92
2023-05-09T06:12:37.268Z,23.89
2023-05-09T06:15:09.845Z,23.86
2023-05-09T06:17:40.623Z,23.83
2023-05-09T06:20:13.456Z,23.80
2023-05-09T06:22:44.926Z,23.81
2023-05-09T06:25:13.900Z,23.78
2023-05-09T06:27:43.220Z,23.73
2023-05-09T06:30:25.575Z,23.70
2023-05-09T06:32:55.896Z,23.75
2023-05-09T06:35:24.653Z,23.72
2023-05-09T06:37:53.131Z,23.69
2023-05-09T06:40:23.440Z,23.68
2023-05-09T06:42:52.236Z,23.67
2023-05-09T06:45:20.767Z,23.67
2023-05-09T06:47:49.401Z,23.68
2023-05-09T06:50:17.887Z,23.68
2023-05-09T06:52:49.432Z,23.71
2023-05-09T06:55:18.443Z,23.74
2023-05-09T06:57:47.131Z,23.80
2023-05-09T07:00:19.915Z,23.84
2023-05-09T07:02:50.181Z,23.90
2023-05-09T07:05:19.255Z,23.90
2023-05-09T07:07:47.718Z,23.90
2023-05-09T07:10:16.838Z,23.90
2023-05-09T07:12:45.433Z,24.03
2023-05-09T07:15:15.538Z,24.02
2023-05-09T07:17:49.349Z,24.03
2023-05-09T07:20:18.162Z,24.03
2023-05-09T07:22:46.906Z,24.02
2023-05-09T07:25:18.035Z,24.00
2023-05-09T07:27:46.418Z,24.01
2023-05-09T07:30:17.170Z,24.01
2023-05-09T07:32:45.720Z,24.01
2023-05-09T07:35:14.492Z,24.01
2023-05-09T07:37:45.810Z,24.01
2023-05-09T07:40:17.003Z,24.05
2023-05-09T07:42:50.116Z,24.06
2023-05-09T07:45:22.959Z,24.08
2023-05-09T07:47:55.542Z,24.10
2023-05-09T07:50:26.551Z,24.11
2023-05-09T07:52:56.621Z,24.11
2023-05-09T07:55:25.012Z,24.11
2023-05-09T07:57:56.270Z,24.12
2023-05-09T08:00:28.008Z,24.13
2023-05-09T08:02:56.581Z,24.13
2023-05-09T08:05:26.620Z,24.13
2023-05-09T08:07:55.702Z,24.14
2023-05-09T08:10:25.345Z,24.18
2023-05-09T08:12:54.256Z,24.18
2023-05-09T08:15:23.455Z,24.18
2023-05-09T08:17:52.021Z,24.18
2023-05-09T08:20:20.475Z,24.19
2023-05-09T08:22:48.953Z,24.19
2023-05-09T08:25:18.509Z,24.18
2023-05-09T08:27:47.165Z,24.19
2023-05-09T08:30:16.681Z,24.20
2023-05-09T08:32:45.268Z,24.19
2023-05-09T08:35:14.165Z,24.18
2023-05-09T08:37:43.426Z,24.17
2023-05-09T08:40:15.338Z,24.20
2023-05-09T08:42:46.228Z,24.19
2023-05-09T08:45:16.854Z,24.19
2023-05-09T08:47:45.224Z,24.18
2023-05-09T08:50:15.751Z,24.19
2023-05-09T08:52:44.760Z,24.27
2023-05-09T08:55:13.245Z,24.25
2023-05-09T08:57:42.253Z,24.19
2023-05-09T09:00:17.237Z,24.16
2023-05-09T09:02:50.698Z,24.18
2023-05-09T09:05:34.040Z,24.16
2023-05-09T09:08:08.785Z,24.25
2023-05-09T09:10:41.612Z,24.19
2023-05-09T09:13:11.072Z,24.17
2023-05-09T09:15:42.423Z,24.15
2023-05-09T09:18:16.774Z,24.13
2023-05-09T09:20:59.325Z,24.16
2023-05-09T09:23:29.527Z,24.19
2023-05-09T09:26:08.778Z,24.15
2023-05-09T09:28:37.849Z,24.18
2023-05-09T09:31:22.877Z,24.16
2023-05-09T09:33:55.108Z,24.16
2023-05-09T09:36:30.805Z,24.14
2023-05-09T09:39:02.293Z,24.22
2023-05-09T09:41:39.588Z,24.20
2023-05-09T09:44:16.712Z,24.20
2023-05-09T09:46:54.056Z,24.22
2023-05-09T09:49:25.012Z,24.23
2023-05-09T09:51:59.770Z,24.23
2023-05-09T09:54:31.523Z,24.22
2023-05-09T09:57:00.587Z,24.22
2023-05-09T09:59:29.163Z,24.24
2023-05-09T10:02:13.311Z,24.25
2023-05-09T10:04:43.233Z,24.29
2023-05-09T10:07:14.583Z,24.30
2023-05-09T10:09:44.291Z,24.32
2023-05-09T10:12:15.741Z,24.30
2023-05-09T10:14:45.655Z,24.29
2023-05-09T10:17:16.257Z,24.30
2023-05-09T10:19:47.349Z,24.31
2023-05-09T10:22:19.706Z,24.29
2023-05-09T10:24:53.393Z,24.31
2023-05-09T10:27:23.845Z,24.35
2023-05-09T10:30:11.136Z,24.34
2023-05-09T10:32:47.538Z,24.36
2023-05-09T10:35:17.972Z,24.40
2023-05-09T10:37:47.068Z,24.41
2023-05-09T10:40:16.050Z,24.37
2023-05-09T10:42:45.143Z,24.35
2023-05-09T10:45:14.304Z,24.33
2023-05-09T10:47:44.370Z,24.32
2023-05-09T10:50:13.549Z,24.30
2023-05-09T10:53:04.306Z,24.29
2023-05-09T10:55:50.604Z,24.29
